createdAt,value
2023-05-18T00:04:45.683Z,4.30
2023-05-18T00:09:44.321Z,4.20
2023-05-18T00:12:14.669Z,4.10
2023-05-18T00:22:08.020Z,4.10
2023-05-18T00:34:34.288Z,4.00
2023-05-18T00:37:04.536Z,4.10
2023-05-18T00:59:16.714Z,3.90
2023-05-18T01:01:46.707Z,4.00
2023-05-18T01:04:16.476Z,4.00
2023-05-18T01:06:44.092Z,6.30
2023-05-18T01:09:14.651Z,4.10
2023-05-18T01:11:52.566Z,4.20
2023-05-18T01:14:30.654Z,4.10
2023-05-18T01:17:22.564Z,4.10
2023-05-18T01:22:23.542Z,4.00
2023-05-18T01:29:49.971Z,3.90
2023-05-18T01:32:22.953Z,3.80
2023-05-18T01:39:45.348Z,4.00
2023-05-18T01:42:16.088Z,4.10
2023-05-18T01:45:02.667Z,4.00
2023-05-18T01:50:04.778Z,4.10
2023-05-18T01:52:58.411Z,4.30
2023-05-18T02:00:24.988Z,4.20
2023-05-18T02:02:52.267Z,4.20
2023-05-18T02:07:50.253Z,4.30
2023-05-18T02:10:17.361Z,4.30
2023-05-18T02:12:49.482Z,4.30
2023-05-18T02:15:16.510Z,4.30
2023-05-18T02:20:11.318Z,4.20
2023-05-18T02:22:38.160Z,4.20
2023-05-18T02:25:06.080Z,4.20
2023-05-18T02:27:33.674Z,8.50
2023-05-18T02:32:33.126Z,3.30
2023-05-18T02:35:02.673Z,4.20
2023-05-18T02:37:32.738Z,4.20
2023-05-18T02:40:01.232Z,4.20
2023-05-18T02:42:28.499Z,4.10
2023-05-18T03:09:40.355Z,5.90
2023-05-18T03:14:35.137Z,4.10
2023-05-18T03:17:06.126Z,4.00
2023-05-18T03:22:02.258Z,4.00
2023-05-18T03:26:58.202Z,4.00
2023-05-18T03:29:25.171Z,4.00
2023-05-18T03:31:52.368Z,4.00
2023-05-18T03:34:20.332Z,3.90
2023-05-18T03:36:47.646Z,4.00
2023-05-18T03:39:15.074Z,3.90
2023-05-18T03:41:42.286Z,4.00
2023-05-18T03:44:09.242Z,3.90
2023-05-18T03:46:36.715Z,4.00
2023-05-18T03:49:05.253Z,4.00
2023-05-18T03:51:32.784Z,4.00
2023-05-18T03:53:59.726Z,4.00
2023-05-18T03:56:26.801Z,4.00
2023-05-18T04:01:23.876Z,4.00
2023-05-18T04:03:51.622Z,4.00
2023-05-18T04:06:18.979Z,5.50
2023-05-18T04:08:46.517Z,7.20
2023-05-18T04:11:13.990Z,4.10
2023-05-18T04:16:13.782Z,4.20
2023-05-18T04:18:41.854Z,4.40
2023-05-18T04:21:09.761Z,4.40
2023-05-18T04:23:39.564Z,4.60
2023-05-18T04:26:07.517Z,4.60
2023-05-18T04:28:37.751Z,4.70
2023-05-18T04:31:04.716Z,4.90
2023-05-18T04:33:31.971Z,6.10
2023-05-18T04:36:05.176Z,6.60
2023-05-18T04:38:34.871Z,7.30
2023-05-18T04:41:06.482Z,8.40
2023-05-18T04:43:33.714Z,7.90
2023-05-18T04:46:01.987Z,8.00
2023-05-18T04:48:31.199Z,7.70
2023-05-18T04:55:57.660Z,7.40
2023-05-18T04:58:25.172Z,7.40
2023-05-18T05:03:20.804Z,7.50
2023-05-18T05:05:48.213Z,7.60
2023-05-18T05:10:49.039Z,7.90
2023-05-18T05:13:16.726Z,8.00
2023-05-18T05:15:46.556Z,8.10
2023-05-18T05:18:14.160Z,8.30
2023-05-18T05:20:41.818Z,8.30
2023-05-18T05:25:38.220Z,8.50
2023-05-18T05:28:05.975Z,8.80
2023-05-18T05:30:33.425Z,8.50
2023-05-18T05:33:00.920Z,8.40
2023-05-18T05:35:30.560Z,8.50
2023-05-18T05:38:01.335Z,8.60
2023-05-18T05:40:28.519Z,8.80
2023-05-18T05:42:56.223Z,8.90
2023-05-18T05:45:23.992Z,13.00
2023-05-18T05:47:51.108Z,9.10
2023-05-18T05:52:45.434Z,9.20
2023-05-18T05:55:12.328Z,9.20
2023-05-18T05:57:42.641Z,9.30
2023-05-18T06:00:11.376Z,9.50
2023-05-18T06:02:38.857Z,9.50
2023-05-18T06:05:07.578Z,9.60
2023-05-18T06:07:34.897Z,9.60
2023-05-18T06:10:04.736Z,9.60
2023-05-18T06:12:31.674Z,9.80
2023-05-18T06:14:58.612Z,9.70
2023-05-18T06:17:29.754Z,10.10
2023-05-18T06:19:56.954Z,10.10
2023-05-18T06:22:24.139Z,11.60
2023-05-18T06:24:50.977Z,10.40
2023-05-18T06:27:18.852Z,10.50
2023-05-18T06:29:45.760Z,11.70
2023-05-18T06:32:13.769Z,10.90
2023-05-18T06:34:40.813Z,10.90
2023-05-18T06:37:11.650Z,11.10
2023-05-18T06:39:41.344Z,11.00
2023-05-18T06:42:08.724Z,11.00
2023-05-18T06:49:32.796Z,11.50
2023-05-18T06:51:59.602Z,11.40
2023-05-18T06:54:29.358Z,11.50
2023-05-18T07:04:20.989Z,11.90
2023-05-18T07:06:48.010Z,11.90
2023-05-18T07:09:16.452Z,12.00
2023-05-18T07:11:45.552Z,12.00
2023-05-18T07:14:12.376Z,11.90
2023-05-18T07:16:39.629Z,11.80
2023-05-18T07:19:06.905Z,12.00
2023-05-18T07:21:34.548Z,12.00
2023-05-18T07:24:01.541Z,12.20
2023-05-18T07:26:29.397Z,12.20
2023-05-18T07:33:51.053Z,12.40
2023-05-18T07:36:18.006Z,12.80
2023-05-18T07:38:44.965Z,12.80
2023-05-18T07:41:12.093Z,12.70
2023-05-18T07:43:38.955Z,12.80
2023-05-18T07:46:06.173Z,12.80
2023-05-18T07:48:33.136Z,13.00
2023-05-18T07:50:59.989Z,13.30
2023-05-18T07:53:29.168Z,13.20
2023-05-18T07:55:57.313Z,13.20
2023-05-18T07:58:29.171Z,13.60
2023-05-18T08:00:57.243Z,13.80
2023-05-18T08:03:30.150Z,13.90
2023-05-18T08:08:48.511Z,13.90
2023-05-18T08:11:17.274Z,14.00
2023-05-18T08:13:50.060Z,14.00
2023-05-18T08:16:24.668Z,13.60
2023-05-18T08:18:53.627Z,13.70
2023-05-18T08:21:22.164Z,14.20
2023-05-18T08:23:54.222Z,14.20
2023-05-18T08:26:32.530Z,13.80
2023-05-18T08:29:03.668Z,13.60
2023-05-18T08:31:36.228Z,13.70
2023-05-18T08:34:07.471Z,13.70
2023-05-18T08:36:35.274Z,13.20
2023-05-18T08:41:44.090Z,13.80
2023-05-18T08:44:18.231Z,13.70
2023-05-18T08:47:13.540Z,13.20
2023-05-18T08:49:43.125Z,13.50
2023-05-18T08:52:57.786Z,13.60
2023-05-18T08:55:28.786Z,14.40
2023-05-18T08:58:09.807Z,14.50
2023-05-18T09:00:45.954Z,14.70
2023-05-18T09:03:17.855Z,14.60
2023-05-18T09:05:59.224Z,14.50
2023-05-18T09:08:43.143Z,15.30
2023-05-18T09:11:33.363Z,15.90
2023-05-18T09:27:36.123Z,15.70
2023-05-18T09:50:20.788Z,14.40
2023-05-18T10:01:29.159Z,14.20
2023-05-18T10:04:11.985Z,13.80
2023-05-18T10:10:12.310Z,13.80
2023-05-18T10:13:14.908Z,13.60
2023-05-18T10:16:20.868Z,13.80
2023-05-18T10:26:55.798Z,15.70
2023-05-18T10:29:26.673Z,15.60
2023-05-18T10:34:44.432Z,15.80
2023-05-18T10:37:12.421Z,15.70
2023-05-18T10:39:39.931Z,16.40
2023-05-18T10:42:08.696Z,16.10
2023-05-18T10:44:36.908Z,17.50
2023-05-18T10:47:06.314Z,15.70
2023-05-18T11:20:06.460Z,14.30
2023-05-18T11:28:58.665Z,14.20
2023-05-18T12:37:38.099Z,14.20
2023-05-18T12:55:06.709Z,16.80
2023-05-18T12:57:37.679Z,16.80
2023-05-18T13:00:33.980Z,16.40
2023-05-18T13:04:19.189Z,15.20
2023-05-18T13:07:42.754Z,15.10
2023-05-18T13:18:29.398Z,16.00
2023-05-18T13:24:26.258Z,15.60
2023-05-18T13:34:50.288Z,16.70
2023-05-18T13:39:44.604Z,17.10
2023-05-18T13:42:12.085Z,16.70
2023-05-18T13:48:09.910Z,15.80
2023-05-18T13:50:49.972Z,15.20
2023-05-18T15:08:34.339Z,15.40
2023-05-18T15:11:01.570Z,15.60
2023-05-18T15:39:16.904Z,14.10
2023-05-18T16:20:00.207Z,13.50
2023-05-18T16:22:33.058Z,13.50
2023-05-18T16:31:09.849Z,13.30
2023-05-18T16:39:32.292Z,13.20
2023-05-18T16:42:23.056Z,13.10
2023-05-18T16:53:21.117Z,12.90
2023-05-18T16:56:08.108Z,12.80
2023-05-18T17:01:48.388Z,12.80
2023-05-18T17:04:22.160Z,12.80
2023-05-18T17:09:31.527Z,12.60
2023-05-18T17:11:58.868Z,12.70
2023-05-18T17:14:26.853Z,12.60
2023-05-18T17:16:56.971Z,12.60
2023-05-18T17:19:28.136Z,12.60
2023-05-18T17:21:55.984Z,12.50
2023-05-18T17:36:49.491Z,12.40
2023-05-18T17:39:17.689Z,12.40
2023-05-18T17:41:49.233Z,12.40
2023-05-18T17:44:19.015Z,12.30
2023-05-18T17:46:46.246Z,12.30
2023-05-18T17:49:17.567Z,12.70
2023-05-18T17:56:42.708Z,12.20
2023-05-18T18:06:36.072Z,12.00
2023-05-18T18:09:05.811Z,12.10
2023-05-18T18:11:33.277Z,12.00
2023-05-18T18:16:29.835Z,12.00
2023-05-18T18:19:03.332Z,12.00
2023-05-18T18:24:03.048Z,11.90
2023-05-18T18:29:00.427Z,11.90
2023-05-18T18:33:56.449Z,11.90
2023-05-18T18:36:26.300Z,11.80
2023-05-18T18:38:53.742Z,11.80
2023-05-18T18:41:22.005Z,11.70
2023-05-18T18:43:49.972Z,11.70
2023-05-18T18:46:17.025Z,11.70
2023-05-18T18:48:45.131Z,11.60
2023-05-18T18:51:12.231Z,11.70
2023-05-18T18:53:41.818Z,11.60
2023-05-18T18:56:09.085Z,11.60
2023-05-18T18:58:39.995Z,11.60
2023-05-18T19:01:10.023Z,11.50
2023-05-18T19:03:39.511Z,11.50
2023-05-18T19:06:08.768Z,11.50
2023-05-18T19:08:35.894Z,11.50
2023-05-18T19:11:05.118Z,11.50
2023-05-18T19:13:32.666Z,11.50
2023-05-18T19:16:00.554Z,11.50
2023-05-18T19:18:30.438Z,11.30
2023-05-18T19:21:05.620Z,12.20
2023-05-18T19:28:30.076Z,11.30
2023-05-18T19:30:57.901Z,11.30
2023-05-18T19:33:25.432Z,11.30
2023-05-18T19:35:52.929Z,11.30
2023-05-18T19:38:20.989Z,11.30
2023-05-18T19:45:45.316Z,11.30
2023-05-18T19:50:41.583Z,11.30
2023-05-18T19:53:08.536Z,11.20
2023-05-18T19:55:36.404Z,11.60
2023-05-18T19:58:03.535Z,11.30
2023-05-18T20:00:31.009Z,11.20
2023-05-18T20:12:48.492Z,11.20
2023-05-18T20:15:15.906Z,11.20
2023-05-18T20:22:50.985Z,11.10
2023-05-18T20:25:18.066Z,11.10
2023-05-18T20:40:10.504Z,11.00
2023-05-18T21:19:44.672Z,10.90
2023-05-18T21:24:39.179Z,10.80
2023-05-18T21:27:06.387Z,10.80
2023-05-18T21:39:22.653Z,10.70
2023-05-18T21:41:49.688Z,11.30
2023-05-18T21:46:44.002Z,10.70
2023-05-18T21:59:02.398Z,10.40
2023-05-18T22:03:56.848Z,10.50
2023-05-18T22:06:23.866Z,10.50
2023-05-18T22:08:51.430Z,10.50
2023-05-18T22:21:10.616Z,10.40
2023-05-18T22:23:40.967Z,10.30
2023-05-18T22:45:53.993Z,10.10
2023-05-18T22:48:25.459Z,10.10
2023-05-18T23:05:43.632Z,10.00
2023-05-18T23:15:33.321Z,9.90
2023-05-18T23:18:00.473Z,10.00
2023-05-18T23:20:27.508Z,9.90
2023-05-18T23:25:22.835Z,9.90
2023-05-18T23:27:49.723Z,9.90
2023-05-18T23:30:16.531Z,9.90
2023-05-18T23:32:44.409Z,9.90
2023-05-18T23:37:42.141Z,9.80
2023-05-18T23:40:12.581Z,9.80
2023-05-18T23:42:39.697Z,9.90
2023-05-18T23:45:07.481Z,9.80
2023-05-18T23:47:34.872Z,9.80
2023-05-18T23:52:29.981Z,9.70
2023-05-18T23:54:58.721Z,11.30
2023-05-18T23:57:25.855Z,9.80
2023-05-18T23:59:52.870Z,9.70
